Wednesday, August 15, 2018, 4:42 AM EDT
Back to Local

KJFK, Kennedy International Airport

Location: Rosedale, NY, United States Lat: 40.633
Local Time: 4:42 AM EDT ( 8:42 GMT) Lon: -73.767
Time Zone: US/Eastern Elev: 13 ft

Show me the last for .
Show Decoded

2018-08-15 03:51 METAR KJFK 150751Z 25010KT 10SM FEW045 BKN150 BKN230 22/21 A2985 RMK AO2 SLP107
                 T02170206 =
2018-08-15 02:51 METAR KJFK 150651Z 27011KT 10SM FEW044 SCT150 BKN230 22/21 A2985 RMK AO2 SLP108
                 T02220206 =
2018-08-15 01:51 METAR KJFK 150551Z 26013KT 10SM FEW044 SCT080 SCT250 22/21 A2986 RMK AO2 SLP111
                 60000 T02220211 10233 20222 55002 =
2018-08-15 00:51 METAR KJFK 150451Z 26009KT 10SM FEW044 SCT080 SCT250 22/21 A2986 RMK AO2 SLP110
                 T02220211 402780211 =
2018-08-14 23:51 METAR KJFK 150351Z 24013KT 10SM FEW037 SCT080 SCT250 22/21 A2986 RMK AO2 SLP111
                 T02220211 =
2018-08-14 22:51 METAR KJFK 150251Z 24013KT 10SM BKN033 OVC250 22/21 A2987 RMK AO2 SLP113 60000
                 T02220211 52006 =
2018-08-14 21:51 METAR KJFK 150151Z 25017KT 10SM FEW040 BKN140 BKN250 22/21 A2987 RMK AO2 SLP113
                 T02220211 =
2018-08-14 20:51 METAR KJFK 150051Z 24013KT 10SM FEW065 SCT110 SCT130 BKN200 BKN250 23/21 A2985
                 RMK AO2 RAB23E35 SLP108 P0000 T02280206 =
2018-08-14 19:51 METAR KJFK 142351Z 25015KT 10SM FEW042 BKN130 BKN160 BKN250 23/22 A2985 RMK AO2
                 SLP107 VCSH SW 60014 T02330217 10278 20217 53004 =
2018-08-14 18:51 METAR KJFK 142251Z 22009KT 10SM FEW042 FEW075 BKN130 BKN250 23/22 A2983 RMK AO2
                 LTG DSNT SE RAE29 TSE04 SLP103 P0000 T02330217 =
2018-08-14 18:07 METAR KJFK 142207Z 24009KT 10SM -RA FEW046 SCT075 BKN100 BKN150 BKN250 23/22
                 A2984 RMK AO2 LTG DSNT NE-S TSE04 TCU DSNT E AND DSNT S P0000 T02280217 =
2018-08-14 17:51 METAR KJFK 142151Z 24008KT 10SM -TSRA SCT046CB SCT075 BKN110 BKN130 BKN250 22/22
                 A2983 RMK AO2 LTG DSNT NE-SE SLP102 OCNL LTGIC E TS E MOV E TCU DSNT S P0014
                 T02220222 =
2018-08-14 17:47 METAR KJFK 142147Z COR 24006KT 10SM -TSRA SCT046CB SCT075 BKN110 BKN130 BKN250
                 22/22 A2984 RMK AO2 LTG DSNT NE-S OCNL LTGIC E TS E MOV E TCU DSNT S P0014 =
2018-08-14 16:51 METAR KJFK 142051Z 31003KT 6SM R04R/2800VP6000FT TSRA SCT018 BKN026CB BKN070
                 BKN250 23/19 A2984 RMK AO2 WSHFT 2011 LTG DSNT ALQDS RAB48 TSB31 SLP104 FRQ
                 LTGICCG NE-SW TS NE-SW MOV NE P0000 60000 T02280194 55008 =
2018-08-14 16:48 METAR KJFK 142048Z COR 31009KT 9SM R04R/2800VP6000FT -TSRA SCT018 BKN026CB
                 BKN070 BKN250 24/19 A2984 RMK AO2 WSHFT 2011 LTG DSNT ALQDS RAB48 TSB31 FRQ
                 LTGICCG NE-SW TS NE-SW MOV NE P0000 =
2018-08-14 16:31 METAR KJFK 142031Z 31018KT 10SM TS FEW022 BKN039CB BKN060 BKN250 24/18 A2984 RMK
                 AO2 WSHFT 2011 LTG DSNT ALQDS TSB31 OCNL LTGIC NW-N TS NW-N MOV NE CB S MOV NE
                 T02440178 =
2018-08-14 15:51 METAR KJFK 141951Z 19013KT 10SM VCTS FEW020 SCT040CB SCT250 28/22 A2983 RMK AO2
                 LTG DSNT SW-N SLP100 OCNL LTGCG SW-NW CB SW-NW MOV E VCSH SW-NW T02780217 =
2018-08-14 15:43 METAR KJFK 141943Z 19012KT 10SM VCTS SCT040CB SCT250 28/22 A2983 RMK AO2 LTG
                 DSNT SW-N CB SW-NW MOV E TCU NW VCSH SW-NW T02780217 =
2018-08-14 14:51 METAR KJFK 141851Z 18012KT 10SM SCT040 SCT250 27/22 A2984 RMK AO2 SLP106 TCU
                 DSNT SW-DSNT W T02720217 =
2018-08-14 13:51 METAR KJFK 141751Z 19007KT 10SM FEW015 SCT028 SCT250 27/23 A2987 RMK AO2 SLP113
                 TCU DSNT SW T02670228 10267 20228 58011 =
2018-08-14 12:51 METAR KJFK 141651Z 20007KT 10SM FEW014 SCT025 SCT250 26/22 A2987 RMK AO2 SLP115
                 CB DSNT W TCU DSNT N T02560222 =
2018-08-14 11:51 METAR KJFK 141551Z 20009KT 10SM SCT023TCU SCT250 26/22 A2989 RMK AO2 SLP122 TCU
                 SW T02560222 =
2018-08-14 10:51 METAR KJFK 141451Z 21007KT 10SM FEW012 FEW027 SCT140 SCT250 25/23 A2990 RMK AO2
                 SLP124 TCU DSNT N T02500228 53001 =
2018-08-14 09:51 METAR KJFK 141351Z 20007KT 10SM SCT009 SCT120 SCT250 24/22 A2989 RMK AO2 SLP121
                 T02440222 =
2018-08-14 08:51 METAR KJFK 141251Z 19007KT 10SM SCT008 BKN150 23/22 A2989 RMK AO2 SLP122 SCT V
                 BKN T02330222 =
2018-08-14 08:06 METAR KJFK 141206Z 21008KT 10SM SCT006 SCT150 23/23 A2989 RMK AO2 T02330233 =
2018-08-14 07:51 METAR KJFK 141151Z 18007KT 10SM BKN005 BKN110 BKN150 23/23 A2989 RMK AO2 SLP123
                 BKN005 V SCT 70060 T02280228 10228 20211 51008 =
2018-08-14 07:22 METAR KJFK 141122Z 18005KT 8SM BKN006 BKN110 23/23 A2990 RMK AO2 T02280228 =
2018-08-14 06:51 METAR KJFK 141051Z 17005KT 7SM SCT008 BKN110 BKN150 BKN250 23/23 A2989 RMK AO2
                 SLP121 T02280228 =
2018-08-14 06:21 METAR KJFK 141021Z 15004KT 7SM SCT008 SCT037 SCT110 BKN250 23/23 A2989 RMK AO2
                 TCU DSNT SE T02280228 =
2018-08-14 05:51 METAR KJFK 140951Z 15004KT 8SM BKN008 BKN150 BKN250 23/23 A2988 RMK AO2 SLP118
                 BKN008 V SCT T02280228 =
2018-08-14 05:16 METAR KJFK 140916Z 14003KT 7SM BKN008 OVC250 22/22 A2988 RMK AO2 T02220222 =
2018-08-14 04:51 METAR KJFK 140851Z 15003KT 7SM FEW017 SCT250 22/22 A2987 RMK AO2 SLP114
                 T02170217 56007 =

Support USWX by starting your Amazon purchase here.